createdAt,value
2023-02-04T00:01:13.695Z,9.40
2023-02-04T00:04:04.674Z,9.40
2023-02-04T00:06:52.906Z,9.40
2023-02-04T00:09:42.692Z,9.40
2023-02-04T00:12:32.855Z,9.30
2023-02-04T00:15:22.554Z,10.20
2023-02-04T00:18:21.987Z,9.30
2023-02-04T00:21:13.383Z,9.20
2023-02-04T00:24:02.904Z,9.20
2023-02-04T00:26:58.960Z,9.30
2023-02-04T00:29:46.991Z,10.30
2023-02-04T00:32:36.863Z,9.30
2023-02-04T00:35:24.700Z,9.50
2023-02-04T00:38:16.340Z,9.20
2023-02-04T00:41:04.086Z,10.20
2023-02-04T00:43:56.847Z,9.20
2023-02-04T00:46:51.123Z,9.10
2023-02-04T00:50:04.158Z,9.20
2023-02-04T00:52:55.071Z,9.20
2023-02-04T00:55:42.695Z,9.30
2023-02-04T00:58:36.685Z,9.20
2023-02-04T01:01:31.382Z,9.50
2023-02-04T01:04:20.448Z,9.40
2023-02-04T01:07:09.347Z,9.50
2023-02-04T01:09:58.058Z,9.80
2023-02-04T01:12:46.580Z,11.80
2023-02-04T01:15:34.878Z,9.20
2023-02-04T01:18:28.222Z,9.20
2023-02-04T01:21:16.558Z,9.10
2023-02-04T01:24:04.389Z,8.80
2023-02-04T01:26:53.692Z,10.60
2023-02-04T01:29:41.405Z,9.20
2023-02-04T01:32:30.073Z,7.10
2023-02-04T01:35:24.011Z,9.10
2023-02-04T01:38:14.115Z,9.10
2023-02-04T01:41:02.268Z,10.00
2023-02-04T01:43:50.704Z,9.00
2023-02-04T01:46:42.316Z,9.10
2023-02-04T01:49:30.361Z,8.60
2023-02-04T01:52:20.545Z,8.30
2023-02-04T01:55:16.604Z,8.30
2023-02-04T01:58:04.212Z,8.10
2023-02-04T02:00:52.122Z,7.90
2023-02-04T02:03:42.611Z,7.90
2023-02-04T02:06:30.528Z,7.80
2023-02-04T02:09:19.438Z,7.80
2023-02-04T02:12:15.083Z,7.70
2023-02-04T02:15:02.529Z,7.80
2023-02-04T02:17:50.938Z,7.70
2023-02-04T02:20:39.590Z,7.70
2023-02-04T02:23:31.328Z,7.70
2023-02-04T02:26:21.187Z,7.60
2023-02-04T02:29:11.940Z,7.50
2023-02-04T02:32:01.296Z,7.60
2023-02-04T02:34:49.649Z,7.60
2023-02-04T02:37:37.710Z,7.60
2023-02-04T02:40:26.185Z,7.60
2023-02-04T02:43:16.695Z,7.60
2023-02-04T02:46:04.550Z,7.50
2023-02-04T02:48:52.750Z,7.70
2023-02-04T02:51:40.509Z,7.50
2023-02-04T02:54:28.743Z,7.50
2023-02-04T02:57:20.502Z,7.50
2023-02-04T03:00:14.825Z,7.60
2023-02-04T03:03:06.290Z,7.60
2023-02-04T03:05:55.418Z,7.60
2023-02-04T03:08:43.734Z,7.60
2023-02-04T03:11:32.860Z,7.60
2023-02-04T03:14:21.071Z,7.60
2023-02-04T03:17:10.767Z,7.60
2023-02-04T03:19:58.014Z,7.60
2023-02-04T03:22:45.644Z,7.70
2023-02-04T03:25:33.147Z,7.60
2023-02-04T03:28:20.808Z,7.50
2023-02-04T03:31:08.436Z,7.60
2023-02-04T03:33:57.238Z,7.60
2023-02-04T03:36:44.606Z,7.70
2023-02-04T03:39:31.872Z,7.70
2023-02-04T03:42:19.947Z,7.70
2023-02-04T03:45:08.727Z,7.70
2023-02-04T03:47:56.599Z,8.00
2023-02-04T03:50:45.908Z,7.60
2023-02-04T03:53:34.076Z,7.60
2023-02-04T03:56:21.337Z,7.60
2023-02-04T03:59:09.418Z,7.70
2023-02-04T04:01:57.379Z,8.40
2023-02-04T04:04:45.018Z,7.70
2023-02-04T04:07:34.451Z,7.70
2023-02-04T04:10:22.713Z,7.70
2023-02-04T04:13:10.372Z,7.70
2023-02-04T04:15:58.430Z,7.70
2023-02-04T04:18:45.808Z,7.70
2023-02-04T04:21:33.389Z,7.70
2023-02-04T04:24:22.390Z,7.80
2023-02-04T04:27:11.580Z,7.70
2023-02-04T04:29:59.083Z,7.70
2023-02-04T04:32:47.405Z,7.80
2023-02-04T04:35:34.903Z,7.70
2023-02-04T04:38:22.110Z,7.70
2023-02-04T04:41:11.067Z,7.70
2023-02-04T04:43:58.557Z,7.90
2023-02-04T04:46:46.336Z,7.70
2023-02-04T04:49:33.830Z,7.70
2023-02-04T04:52:21.147Z,8.30
2023-02-04T04:55:09.717Z,7.80
2023-02-04T04:57:58.955Z,7.80
2023-02-04T05:00:46.344Z,7.80
2023-02-04T05:03:33.878Z,7.80
2023-02-04T05:06:25.411Z,7.80
2023-02-04T05:09:15.293Z,7.80
2023-02-04T05:12:02.941Z,7.80
2023-02-04T05:14:52.040Z,7.80
2023-02-04T05:17:40.021Z,7.90
2023-02-04T05:20:27.425Z,7.90
2023-02-04T05:23:17.390Z,7.90
2023-02-04T05:26:05.606Z,7.90
2023-02-04T05:28:53.355Z,7.90
2023-02-04T05:31:42.808Z,7.90
2023-02-04T05:34:30.139Z,7.90
2023-02-04T05:37:19.113Z,7.90
2023-02-04T05:40:07.858Z,7.90
2023-02-04T05:42:55.364Z,7.90
2023-02-04T05:45:44.092Z,7.90
2023-02-04T05:48:33.013Z,7.90
2023-02-04T05:51:20.556Z,7.90
2023-02-04T05:54:07.991Z,7.90
2023-02-04T05:56:55.845Z,7.90
2023-02-04T05:59:43.761Z,7.90
2023-02-04T06:02:31.046Z,7.90
2023-02-04T06:05:19.944Z,7.90
2023-02-04T06:08:07.363Z,7.90
2023-02-04T06:10:55.136Z,8.00
2023-02-04T06:13:42.780Z,8.00
2023-02-04T06:16:30.484Z,7.90
2023-02-04T06:19:18.169Z,7.90
2023-02-04T06:22:07.293Z,8.00
2023-02-04T06:24:55.133Z,8.00
2023-02-04T06:27:42.881Z,8.00
2023-02-04T06:30:31.454Z,8.00
2023-02-04T06:33:21.518Z,8.10
2023-02-04T06:36:09.127Z,8.10
2023-02-04T06:38:58.749Z,8.10
2023-02-04T06:41:46.095Z,8.10
2023-02-04T06:44:33.394Z,8.10
2023-02-04T06:47:21.226Z,8.10
2023-02-04T06:50:09.629Z,8.10
2023-02-04T06:52:56.757Z,8.00
2023-02-04T06:55:45.956Z,7.90
2023-02-04T06:58:33.767Z,7.90
2023-02-04T07:01:21.473Z,7.80
2023-02-04T07:04:10.932Z,7.80
2023-02-04T07:06:58.945Z,7.80
2023-02-04T07:09:47.005Z,7.80
2023-02-04T07:12:36.679Z,7.80
2023-02-04T07:15:23.938Z,7.80
2023-02-04T07:18:12.014Z,7.80
2023-02-04T07:20:59.567Z,7.80
2023-02-04T07:23:47.003Z,7.80
2023-02-04T07:26:35.576Z,7.80
2023-02-04T07:29:26.042Z,7.80
2023-02-04T07:32:13.663Z,7.80
2023-02-04T07:35:01.213Z,7.80
2023-02-04T07:37:49.805Z,7.80
2023-02-04T07:40:37.265Z,7.80
2023-02-04T07:43:27.247Z,7.80
2023-02-04T07:46:19.048Z,7.70
2023-02-04T07:49:06.706Z,7.90
2023-02-04T07:51:54.592Z,7.80
2023-02-04T07:54:42.394Z,7.80
2023-02-04T07:57:30.486Z,7.80
2023-02-04T08:00:18.900Z,7.80
2023-02-04T08:03:10.215Z,7.80
2023-02-04T08:05:58.014Z,9.90
2023-02-04T08:08:45.525Z,7.80
2023-02-04T08:11:33.149Z,7.80
2023-02-04T08:14:21.240Z,7.80
2023-02-04T08:17:08.949Z,7.80
2023-02-04T08:19:58.200Z,9.90
2023-02-04T08:22:49.164Z,7.80
2023-02-04T08:25:36.950Z,7.90
2023-02-04T08:28:24.833Z,7.90
2023-02-04T08:31:13.133Z,7.90
2023-02-04T08:34:00.954Z,7.90
2023-02-04T08:36:50.338Z,8.00
2023-02-04T08:39:38.565Z,8.10
2023-02-04T08:42:26.364Z,8.10
2023-02-04T08:45:13.933Z,8.20
2023-02-04T08:48:02.240Z,8.10
2023-02-04T08:50:49.897Z,8.20
2023-02-04T08:53:40.547Z,7.30
2023-02-04T08:56:28.096Z,8.30
2023-02-04T08:59:15.759Z,8.40
2023-02-04T09:02:04.262Z,8.40
2023-02-04T09:04:52.592Z,8.40
2023-02-04T09:07:40.200Z,8.40
2023-02-04T09:10:29.206Z,8.50
2023-02-04T09:13:16.819Z,8.40
2023-02-04T09:16:05.020Z,8.40
2023-02-04T09:18:52.733Z,8.40
2023-02-04T09:21:40.464Z,7.90
2023-02-04T09:24:27.979Z,8.50
2023-02-04T09:27:17.352Z,8.60
2023-02-04T09:30:05.495Z,8.60
2023-02-04T09:32:53.561Z,8.50
2023-02-04T09:35:42.051Z,8.50
2023-02-04T09:38:29.430Z,8.50
2023-02-04T09:41:17.036Z,8.50
2023-02-04T09:44:08.759Z,8.50
2023-02-04T09:46:57.094Z,8.50
2023-02-04T09:49:46.984Z,8.50
2023-02-04T09:52:34.577Z,8.40
2023-02-04T09:55:22.726Z,8.50
2023-02-04T09:58:13.710Z,8.50
2023-02-04T10:01:12.448Z,8.50
2023-02-04T10:04:02.796Z,8.60
2023-02-04T10:06:50.415Z,8.70
2023-02-04T10:09:37.999Z,8.70
2023-02-04T10:12:26.178Z,8.70
2023-02-04T10:15:15.422Z,8.80
2023-02-04T10:18:07.563Z,8.70
2023-02-04T10:20:56.939Z,9.80
2023-02-04T10:23:45.808Z,8.80
2023-02-04T10:26:34.078Z,8.90
2023-02-04T10:29:24.035Z,8.90
2023-02-04T10:32:26.585Z,11.00
2023-02-04T10:35:16.327Z,9.00
2023-02-04T10:38:05.023Z,9.30
2023-02-04T10:41:01.754Z,8.80
2023-02-04T10:43:56.256Z,6.80
2023-02-04T10:46:43.831Z,9.00
2023-02-04T10:49:34.400Z,8.90
2023-02-04T10:52:25.636Z,8.90
2023-02-04T10:55:18.195Z,8.90
2023-02-04T10:58:06.391Z,8.90
2023-02-04T11:00:53.828Z,9.00
2023-02-04T11:03:42.930Z,8.90
2023-02-04T11:06:31.058Z,8.80
2023-02-04T11:09:20.302Z,8.80
2023-02-04T11:12:21.158Z,8.70
2023-02-04T11:15:09.307Z,8.70
2023-02-04T11:18:03.595Z,8.80
2023-02-04T11:20:53.594Z,8.80
2023-02-04T11:23:44.137Z,8.90
2023-02-04T11:26:37.214Z,8.90
2023-02-04T11:29:31.233Z,8.90
2023-02-04T11:32:29.409Z,8.90
2023-02-04T11:35:28.821Z,8.90
2023-02-04T11:38:29.446Z,9.00
2023-02-04T11:41:18.080Z,8.80
2023-02-04T11:44:06.938Z,7.30
2023-02-04T11:46:55.798Z,9.00
2023-02-04T11:49:43.606Z,9.20
2023-02-04T11:52:31.636Z,9.30
2023-02-04T11:55:19.422Z,9.30
2023-02-04T11:58:11.348Z,9.30
2023-02-04T12:01:00.584Z,9.60
2023-02-04T12:03:48.899Z,9.30
2023-02-04T12:06:37.623Z,9.40
2023-02-04T12:09:30.017Z,9.50
2023-02-04T12:12:26.358Z,9.40
2023-02-04T12:15:18.634Z,9.50
2023-02-04T12:18:09.232Z,9.50
2023-02-04T12:20:57.238Z,10.80
2023-02-04T12:23:44.688Z,9.70
2023-02-04T12:26:32.911Z,9.90
2023-02-04T12:29:20.387Z,9.80
2023-02-04T12:32:08.234Z,9.80
2023-02-04T12:34:58.297Z,9.80
2023-02-04T12:37:46.206Z,9.80
2023-02-04T12:40:33.713Z,9.90
2023-02-04T12:43:21.616Z,10.00
2023-02-04T12:46:09.452Z,9.70
2023-02-04T12:48:57.495Z,9.90
2023-02-04T12:51:47.196Z,9.60
2023-02-04T12:54:34.778Z,9.50
2023-02-04T12:57:22.456Z,9.50
2023-02-04T13:00:11.461Z,9.40
2023-02-04T13:02:59.860Z,9.40
2023-02-04T13:05:47.520Z,9.50
2023-02-04T13:08:36.089Z,9.60
2023-02-04T13:11:23.730Z,9.70
2023-02-04T13:14:11.317Z,11.60
2023-02-04T13:16:58.705Z,9.60
2023-02-04T13:19:46.339Z,9.90
2023-02-04T13:22:33.886Z,9.90
2023-02-04T13:25:23.618Z,9.80
2023-02-04T13:28:11.234Z,9.80
2023-02-04T13:30:58.789Z,9.70
2023-02-04T13:33:46.507Z,9.70
2023-02-04T13:36:37.510Z,9.70
2023-02-04T13:39:27.602Z,9.80
2023-02-04T13:42:16.942Z,9.80
2023-02-04T13:45:05.105Z,9.90
2023-02-04T13:47:52.705Z,10.00
2023-02-04T13:50:41.212Z,10.10
2023-02-04T13:53:31.571Z,10.10
2023-02-04T13:56:19.222Z,9.90
2023-02-04T13:59:11.479Z,10.00
2023-02-04T14:01:59.093Z,10.00
2023-02-04T14:04:47.301Z,10.30
2023-02-04T14:07:35.397Z,10.10
2023-02-04T14:10:25.059Z,10.20
2023-02-04T14:13:12.632Z,10.30
2023-02-04T14:16:02.491Z,10.30
2023-02-04T14:18:50.235Z,10.40
2023-02-04T14:21:38.900Z,10.30
2023-02-04T14:24:26.344Z,10.10
2023-02-04T14:27:15.298Z,10.30
2023-02-04T14:30:02.790Z,10.20
2023-02-04T14:32:52.727Z,10.10
2023-02-04T14:35:40.327Z,10.00
2023-02-04T14:38:31.157Z,10.00
2023-02-04T14:41:21.490Z,10.00
2023-02-04T14:44:09.411Z,10.00
2023-02-04T14:46:56.707Z,10.00
2023-02-04T14:49:45.555Z,10.00
2023-02-04T14:52:33.366Z,10.20
2023-02-04T14:55:21.741Z,10.10
2023-02-04T14:58:10.177Z,10.10
2023-02-04T15:00:58.189Z,10.10
2023-02-04T15:03:46.965Z,10.10
2023-02-04T15:06:36.957Z,10.00
2023-02-04T15:09:25.149Z,10.60
2023-02-04T15:12:12.921Z,10.00
2023-02-04T15:15:01.279Z,9.90
2023-02-04T15:17:50.581Z,9.90
2023-02-04T15:20:38.572Z,9.90
2023-02-04T15:23:27.606Z,9.90
2023-02-04T15:26:15.420Z,9.80
2023-02-04T15:29:05.523Z,9.80
2023-02-04T15:31:53.241Z,9.70
2023-02-04T15:34:41.529Z,9.70
2023-02-04T15:37:29.518Z,10.20
2023-02-04T15:40:19.849Z,9.50
2023-02-04T15:43:07.378Z,9.60
2023-02-04T15:45:54.746Z,9.60
2023-02-04T15:48:44.346Z,9.70
2023-02-04T15:51:32.330Z,9.60
2023-02-04T15:54:20.350Z,9.60
2023-02-04T15:57:09.621Z,9.60
2023-02-04T15:59:58.133Z,9.90
2023-02-04T16:02:48.463Z,9.60
2023-02-04T16:05:37.105Z,9.40
2023-02-04T16:08:24.905Z,10.60
2023-02-04T16:11:14.723Z,9.50
2023-02-04T16:14:04.684Z,9.50
2023-02-04T16:16:53.352Z,9.50
2023-02-04T16:19:41.176Z,7.60
2023-02-04T16:22:28.985Z,9.40
2023-02-04T16:25:17.123Z,9.40
2023-02-04T16:28:05.636Z,9.40
2023-02-04T16:30:54.976Z,9.40
2023-02-04T16:33:42.921Z,9.40
2023-02-04T16:36:30.920Z,9.30
2023-02-04T16:39:18.630Z,9.30
2023-02-04T16:42:09.051Z,9.60
2023-02-04T16:44:57.539Z,8.90
2023-02-04T16:47:46.378Z,9.40
2023-02-04T16:50:34.436Z,9.40
2023-02-04T16:53:24.254Z,9.30
2023-02-04T16:56:12.085Z,9.40
2023-02-04T16:59:00.161Z,9.40
2023-02-04T17:01:47.785Z,9.40
2023-02-04T17:04:36.990Z,9.30
2023-02-04T17:07:25.175Z,9.40
2023-02-04T17:10:13.023Z,8.80
2023-02-04T17:13:02.696Z,9.40
2023-02-04T17:15:50.598Z,9.40
2023-02-04T17:18:39.027Z,9.40
2023-02-04T17:21:28.215Z,9.40
2023-02-04T17:24:15.871Z,10.90
2023-02-04T17:27:03.563Z,9.40
2023-02-04T17:29:53.001Z,9.40
2023-02-04T17:32:45.452Z,9.40
2023-02-04T17:35:36.406Z,9.90
2023-02-04T17:38:29.319Z,9.30
2023-02-04T17:41:17.597Z,9.30
2023-02-04T17:44:07.755Z,9.50
2023-02-04T17:46:55.329Z,9.20
2023-02-04T17:49:42.667Z,9.10
2023-02-04T17:52:34.375Z,9.00
2023-02-04T17:55:25.626Z,8.90
2023-02-04T17:58:15.072Z,9.00
2023-02-04T18:01:25.841Z,8.90
2023-02-04T18:04:14.771Z,8.80
2023-02-04T18:07:02.503Z,8.80
2023-02-04T18:09:50.466Z,8.80
2023-02-04T18:12:41.338Z,9.60
2023-02-04T18:15:30.483Z,8.80
2023-02-04T18:18:23.405Z,10.90
2023-02-04T18:21:19.037Z,8.80
2023-02-04T18:24:15.735Z,10.20
2023-02-04T18:27:04.714Z,8.90
2023-02-04T18:29:56.110Z,8.80
2023-02-04T18:32:43.783Z,8.80
2023-02-04T18:35:39.448Z,9.10
2023-02-04T18:38:28.560Z,8.70
2023-02-04T18:41:27.923Z,8.80
2023-02-04T18:44:24.601Z,8.60
2023-02-04T18:47:31.750Z,8.70
2023-02-04T18:50:24.020Z,8.60
2023-02-04T18:53:20.175Z,8.60
2023-02-04T18:56:10.695Z,8.60
2023-02-04T18:58:58.356Z,8.60
2023-02-04T19:01:46.781Z,8.50
2023-02-04T19:04:35.899Z,8.50
2023-02-04T19:07:23.540Z,8.50
2023-02-04T19:10:25.885Z,8.50
2023-02-04T19:13:17.933Z,8.60
2023-02-04T19:16:08.888Z,8.60
2023-02-04T19:18:57.970Z,8.60
2023-02-04T19:21:47.420Z,7.70
2023-02-04T19:24:34.977Z,9.10
2023-02-04T19:27:29.324Z,8.50
2023-02-04T19:30:41.806Z,8.50
2023-02-04T19:33:32.264Z,8.60
2023-02-04T19:36:27.662Z,9.00
2023-02-04T19:39:23.231Z,8.60
2023-02-04T19:42:23.484Z,8.50
2023-02-04T19:45:15.136Z,8.50
2023-02-04T19:48:03.193Z,8.50
2023-02-04T19:50:52.941Z,8.50
2023-02-04T19:53:40.452Z,8.50
2023-02-04T19:56:33.652Z,8.50
2023-02-04T19:59:26.545Z,8.50
2023-02-04T20:02:19.401Z,8.50
2023-02-04T20:05:14.949Z,8.50
2023-02-04T20:08:08.694Z,8.50
2023-02-04T20:10:56.569Z,8.50
2023-02-04T20:13:45.563Z,9.10
2023-02-04T20:16:39.536Z,8.50
2023-02-04T20:19:28.486Z,8.50
2023-02-04T20:22:37.108Z,8.50
2023-02-04T20:25:43.972Z,8.50
2023-02-04T20:28:38.477Z,8.50
2023-02-04T20:31:29.858Z,8.50
2023-02-04T20:34:22.664Z,8.50
2023-02-04T20:37:12.366Z,8.50
2023-02-04T20:40:05.066Z,10.60
2023-02-04T20:42:55.851Z,8.40
2023-02-04T20:45:47.865Z,8.40
2023-02-04T20:48:38.373Z,8.40
2023-02-04T20:51:31.351Z,8.40
2023-02-04T20:54:22.481Z,8.60
2023-02-04T20:57:16.538Z,10.50
2023-02-04T21:00:16.280Z,8.40
2023-02-04T21:03:09.837Z,8.40
2023-02-04T21:05:59.589Z,8.40
2023-02-04T21:08:51.012Z,6.30
2023-02-04T21:11:38.712Z,8.50
2023-02-04T21:14:27.800Z,8.50
2023-02-04T21:17:15.391Z,6.60
2023-02-04T21:20:02.847Z,8.50
2023-02-04T21:22:52.475Z,8.40
2023-02-04T21:25:43.082Z,8.40
2023-02-04T21:28:34.373Z,8.40
2023-02-04T21:31:22.310Z,8.40
2023-02-04T21:34:12.763Z,8.40
2023-02-04T21:37:01.968Z,8.30
2023-02-04T21:39:51.697Z,8.30
2023-02-04T21:42:39.785Z,7.30
2023-02-04T21:45:29.466Z,8.30
2023-02-04T21:48:17.237Z,8.30
2023-02-04T21:51:04.598Z,8.20
2023-02-04T21:53:55.417Z,8.20
2023-02-04T21:56:44.984Z,8.20
2023-02-04T21:59:33.025Z,8.20
2023-02-04T22:02:21.350Z,8.20
2023-02-04T22:05:09.824Z,8.50
2023-02-04T22:07:59.735Z,8.10
2023-02-04T22:11:07.809Z,8.10
2023-02-04T22:13:57.554Z,6.50
2023-02-04T22:16:46.776Z,8.20
2023-02-04T22:19:34.404Z,9.20
2023-02-04T22:22:25.509Z,8.10
2023-02-04T22:25:14.145Z,8.10
2023-02-04T22:28:03.062Z,8.00
2023-02-04T22:30:54.373Z,8.10
2023-02-04T22:33:48.154Z,8.10
2023-02-04T22:36:36.154Z,8.00
2023-02-04T22:39:24.592Z,8.10
2023-02-04T22:42:13.433Z,10.00
2023-02-04T22:45:12.490Z,8.00
2023-02-04T22:48:03.905Z,8.00
2023-02-04T22:50:56.727Z,10.00
2023-02-04T22:53:44.177Z,5.60
2023-02-04T22:56:32.480Z,8.00
2023-02-04T22:59:20.024Z,8.00
2023-02-04T23:02:18.663Z,7.90
2023-02-04T23:05:09.024Z,8.00
2023-02-04T23:08:02.381Z,8.00
2023-02-04T23:10:50.290Z,8.00
2023-02-04T23:13:38.877Z,8.00
2023-02-04T23:16:26.710Z,10.20
2023-02-04T23:19:14.795Z,8.20
2023-02-04T23:22:08.727Z,8.00
2023-02-04T23:24:56.661Z,8.00
2023-02-04T23:27:44.545Z,8.00
2023-02-04T23:30:39.331Z,8.00
2023-02-04T23:33:26.921Z,8.00
2023-02-04T23:36:14.944Z,8.20
2023-02-04T23:39:04.038Z,10.00
2023-02-04T23:41:52.040Z,7.70
2023-02-04T23:44:40.799Z,7.90
2023-02-04T23:47:31.395Z,8.00
2023-02-04T23:50:18.843Z,8.00
2023-02-04T23:53:07.201Z,9.60
2023-02-04T23:55:56.674Z,9.70
2023-02-04T23:58:44.466Z,7.80
